Time,TemperatureF,DewpointF,PressureIn,WindDirection,WindDirectionDegrees,WindSpeedMPH,WindSpeedGustMPH,Humidity,HourlyPrecipIn,Conditions,Clouds,dailyrainin,SoftwareType,DateUTC
2013-11-30 00:00:00,31.2,23.6,30.63,East,89,0.0,0.0,73,0.00,,,0.00,VWS V15.00,2013-11-30 05:00:00,
2013-11-30 00:10:00,30.9,23.6,30.63,East,89,0.0,0.0,74,0.00,,,0.00,VWS V15.00,2013-11-30 05:10:00,
2013-11-30 00:20:00,30.7,23.4,30.62,East,89,0.0,0.0,74,0.00,,,0.00,VWS V15.00,2013-11-30 05:20:00,
2013-11-30 00:30:00,30.4,23.4,30.62,East,89,0.0,0.0,75,0.00,,,0.00,VWS V15.00,2013-11-30 05:30:00,
2013-11-30 00:40:00,30.1,23.5,30.62,East,89,0.0,0.0,76,0.00,,,0.00,VWS V15.00,2013-11-30 05:40:00,
2013-11-30 00:50:00,29.8,23.5,30.62,East,89,0.0,0.0,77,0.00,,,0.00,VWS V15.00,2013-11-30 05:50:00,
2013-11-30 01:00:00,29.7,23.7,30.62,East,89,0.0,0.0,78,0.00,,,0.00,VWS V15.00,2013-11-30 06:00:00,
2013-11-30 01:10:00,29.4,23.7,30.62,East,89,0.0,0.0,79,0.00,,,0.00,VWS V15.00,2013-11-30 06:10:00,
2013-11-30 01:20:00,29.1,23.1,30.62,East,89,0.0,0.0,78,0.00,,,0.00,VWS V15.00,2013-11-30 06:20:00,
2013-11-30 01:30:00,29.0,22.7,30.62,East,89,0.0,0.0,77,0.00,,,0.00,VWS V15.00,2013-11-30 06:30:00,
2013-11-30 01:40:00,29.1,22.5,30.62,East,89,0.0,0.0,76,0.00,,,0.00,VWS V15.00,2013-11-30 06:40:00,
2013-11-30 01:50:00,29.0,22.4,30.62,East,89,0.0,0.0,76,0.00,,,0.00,VWS V15.00,2013-11-30 06:50:00,
2013-11-30 02:00:00,29.0,22.4,30.62,East,89,0.0,0.0,76,0.00,,,0.00,VWS V15.00,2013-11-30 07:00:00,
2013-11-30 02:10:00,29.0,22.1,30.62,East,89,0.0,0.0,75,0.00,,,0.00,VWS V15.00,2013-11-30 07:10:00,
2013-11-30 02:20:00,29.1,21.9,30.61,East,89,0.0,0.0,74,0.00,,,0.00,VWS V15.00,2013-11-30 07:20:00,
2013-11-30 02:30:00,29.1,21.9,30.61,East,89,0.0,0.0,74,0.00,,,0.00,VWS V15.00,2013-11-30 07:30:00,
2013-11-30 02:40:00,29.1,21.9,30.61,East,89,0.0,0.0,74,0.00,,,0.00,VWS V15.00,2013-11-30 07:40:00,
2013-11-30 02:50:00,29.1,21.9,30.61,East,89,0.0,0.0,74,0.00,,,0.00,VWS V15.00,2013-11-30 07:50:00,
2013-11-30 03:00:00,29.1,22.2,30.61,East,89,0.0,0.0,75,0.00,,,0.00,VWS V15.00,2013-11-30 08:00:00,
2013-11-30 03:10:00,29.0,22.1,30.61,East,89,0.0,0.0,75,0.00,,,0.00,VWS V15.00,2013-11-30 08:10:00,
2013-11-30 03:20:00,29.0,22.1,30.61,East,89,0.0,0.0,75,0.00,,,0.00,VWS V15.00,2013-11-30 08:20:00,
2013-11-30 03:30:00,29.0,22.1,30.61,East,89,0.0,0.0,75,0.00,,,0.00,VWS V15.00,2013-11-30 08:30:00,
2013-11-30 03:40:00,29.0,22.1,30.61,East,89,0.0,0.0,75,0.00,,,0.00,VWS V15.00,2013-11-30 08:40:00,
2013-11-30 03:50:00,29.0,22.1,30.61,East,89,0.0,0.0,75,0.00,,,0.00,VWS V15.00,2013-11-30 08:50:00,
2013-11-30 04:00:00,28.8,21.9,30.61,East,89,0.0,0.0,75,0.00,,,0.00,VWS V15.00,2013-11-30 09:00:00,
2013-11-30 04:10:00,28.7,22.1,30.61,East,89,0.0,0.0,76,0.00,,,0.00,VWS V15.00,2013-11-30 09:10:00,
2013-11-30 04:20:00,28.7,22.1,30.61,East,89,0.0,0.0,76,0.00,,,0.00,VWS V15.00,2013-11-30 09:20:00,
2013-11-30 04:30:00,28.5,21.9,30.61,East,89,0.0,0.0,76,0.00,,,0.00,VWS V15.00,2013-11-30 09:30:00,
2013-11-30 04:40:00,28.5,22.2,30.61,East,89,0.0,0.0,77,0.00,,,0.00,VWS V15.00,2013-11-30 09:40:00,
2013-11-30 04:50:00,28.4,22.1,30.60,East,89,0.0,0.0,77,0.00,,,0.00,VWS V15.00,2013-11-30 09:50:00,
2013-11-30 05:00:00,28.4,22.1,30.60,East,89,0.0,0.0,77,0.00,,,0.00,VWS V15.00,2013-11-30 10:00:00,
2013-11-30 05:10:00,28.4,22.1,30.60,East,89,0.0,0.0,77,0.00,,,0.00,VWS V15.00,2013-11-30 10:10:00,
2013-11-30 05:20:00,28.4,22.1,30.60,East,89,0.0,0.0,77,0.00,,,0.00,VWS V15.00,2013-11-30 10:20:00,
2013-11-30 05:30:00,28.4,22.1,30.60,East,89,0.0,0.0,77,0.00,,,0.00,VWS V15.00,2013-11-30 10:30:00,
2013-11-30 05:40:00,28.4,22.1,30.60,East,89,0.0,0.0,77,0.00,,,0.00,VWS V15.00,2013-11-30 10:40:00,
2013-11-30 05:50:00,28.4,22.1,30.60,East,89,1.0,1.0,77,0.00,,,0.00,VWS V15.00,2013-11-30 10:50:00,
2013-11-30 06:00:00,28.2,22.2,30.61,North,350,0.0,1.0,78,0.00,,,0.00,VWS V15.00,2013-11-30 11:00:00,
2013-11-30 06:10:00,27.9,22.2,30.61,North,350,0.0,0.0,79,0.00,,,0.00,VWS V15.00,2013-11-30 11:10:00,
2013-11-30 06:20:00,27.6,22.0,30.61,NW,311,0.0,2.0,79,0.00,,,0.00,VWS V15.00,2013-11-30 11:20:00,
2013-11-30 06:30:00,27.6,22.2,30.61,NW,311,0.0,0.0,80,0.00,,,0.00,VWS V15.00,2013-11-30 11:30:00,
2013-11-30 06:40:00,27.6,22.0,30.61,NW,311,0.0,0.0,79,0.00,,,0.00,VWS V15.00,2013-11-30 11:40:00,
2013-11-30 06:50:00,27.3,22.0,30.61,NW,311,0.0,0.0,80,0.00,,,0.00,VWS V15.00,2013-11-30 11:50:00,
2013-11-30 07:00:00,26.7,21.7,30.62,NW,311,0.0,0.0,81,0.00,,,0.00,VWS V15.00,2013-11-30 12:00:00,
2013-11-30 07:10:00,26.6,21.9,30.62,East,87,0.0,0.0,82,0.00,,,0.00,VWS V15.00,2013-11-30 12:10:00,
2013-11-30 07:20:00,26.4,21.7,30.62,East,87,0.0,0.0,82,0.00,,,0.00,VWS V15.00,2013-11-30 12:20:00,
2013-11-30 07:30:00,26.4,22.0,30.63,East,87,0.0,0.0,83,0.00,,,0.00,VWS V15.00,2013-11-30 12:30:00,
2013-11-30 07:40:00,26.6,22.4,30.63,North,358,0.0,2.0,84,0.00,,,0.00,VWS V15.00,2013-11-30 12:40:00,
2013-11-30 07:50:00,27.2,22.7,30.63,NNE,24,0.0,2.0,83,0.00,,,0.00,VWS V15.00,2013-11-30 12:50:00,
2013-11-30 08:00:00,27.8,23.0,30.63,NNE,23,0.0,1.0,82,0.00,,,0.00,VWS V15.00,2013-11-30 13:00:00,
2013-11-30 08:10:00,28.4,23.3,30.63,SSW,201,0.0,1.0,81,0.00,,,0.00,VWS V15.00,2013-11-30 13:10:00,
2013-11-30 08:20:00,28.8,23.7,30.63,NNW,338,0.0,1.0,81,0.00,,,0.00,VWS V15.00,2013-11-30 13:20:00,
2013-11-30 08:30:00,29.1,23.4,30.63,North,0,0.0,3.0,79,0.00,,,0.00,VWS V15.00,2013-11-30 13:30:00,
2013-11-30 08:40:00,29.7,24.0,30.63,NE,56,0.0,2.0,79,0.00,,,0.00,VWS V15.00,2013-11-30 13:40:00,
2013-11-30 08:50:00,30.6,24.6,30.64,ENE,68,0.0,3.0,78,0.00,,,0.00,VWS V15.00,2013-11-30 13:50:00,
2013-11-30 09:00:00,31.6,24.9,30.63,East,100,0.0,3.0,76,0.00,,,0.00,VWS V15.00,2013-11-30 14:00:00,
2013-11-30 09:10:00,32.4,24.7,30.63,NNW,329,0.0,1.0,73,0.00,,,0.00,VWS V15.00,2013-11-30 14:10:00,
2013-11-30 09:20:00,33.4,25.4,30.63,East,98,0.0,1.0,72,0.00,,,0.00,VWS V15.00,2013-11-30 14:20:00,
2013-11-30 09:30:00,33.7,25.0,30.63,NE,47,0.0,2.0,70,0.00,,,0.00,VWS V15.00,2013-11-30 14:30:00,
2013-11-30 09:40:00,34.1,25.7,30.63,North,4,0.0,1.0,71,0.00,,,0.00,VWS V15.00,2013-11-30 14:40:00,
2013-11-30 09:50:00,35.0,25.5,30.63,North,0,0.0,2.0,68,0.00,,,0.00,VWS V15.00,2013-11-30 14:50:00,
2013-11-30 10:00:00,35.8,26.3,30.63,ENE,70,0.0,1.0,68,0.00,,,0.00,VWS V15.00,2013-11-30 15:00:00,
2013-11-30 10:10:00,36.8,26.9,30.63,SE,133,0.0,0.0,67,0.00,,,0.00,VWS V15.00,2013-11-30 15:10:00,
2013-11-30 10:20:00,37.6,27.6,30.62,ENE,63,0.0,2.0,67,0.00,,,0.00,VWS V15.00,2013-11-30 15:20:00,
2013-11-30 10:30:00,38.2,27.1,30.62,NE,38,0.0,2.0,64,0.00,,,0.00,VWS V15.00,2013-11-30 15:30:00,
2013-11-30 10:40:00,38.3,26.8,30.62,SSE,158,0.0,4.0,63,0.00,,,0.00,VWS V15.00,2013-11-30 15:40:00,
2013-11-30 10:50:00,38.9,27.4,30.61,WNW,297,0.0,4.0,63,0.00,,,0.00,VWS V15.00,2013-11-30 15:50:00,
2013-11-30 11:00:00,39.5,27.6,30.60,NE,39,0.0,4.0,62,0.00,,,0.00,VWS V15.00,2013-11-30 16:00:00,
2013-11-30 11:10:00,40.1,28.1,30.60,North,9,0.0,4.0,62,0.00,,,0.00,VWS V15.00,2013-11-30 16:10:00,
2013-11-30 11:20:00,40.9,28.9,30.59,ENE,68,0.0,1.0,62,0.00,,,0.00,VWS V15.00,2013-11-30 16:20:00,
2013-11-30 11:30:00,41.5,29.5,30.58,NW,309,0.0,3.0,62,0.00,,,0.00,VWS V15.00,2013-11-30 16:30:00,
2013-11-30 11:40:00,42.1,29.6,30.58,North,358,3.0,3.0,61,0.00,,,0.00,VWS V15.00,2013-11-30 16:40:00,
2013-11-30 11:50:00,42.8,29.9,30.58,ENE,68,1.0,4.0,60,0.00,,,0.00,VWS V15.00,2013-11-30 16:50:00,
2013-11-30 12:00:00,42.8,29.9,30.57,WNW,290,0.0,4.0,60,0.00,,,0.00,VWS V15.00,2013-11-30 17:00:00,
2013-11-30 12:10:00,43.3,30.4,30.57,NE,46,0.0,2.0,60,0.00,,,0.00,VWS V15.00,2013-11-30 17:10:00,
2013-11-30 12:20:00,43.6,30.2,30.56,SE,129,0.0,3.0,59,0.00,,,0.00,VWS V15.00,2013-11-30 17:20:00,
2013-11-30 12:30:00,43.9,30.5,30.55,East,101,0.0,2.0,59,0.00,,,0.00,VWS V15.00,2013-11-30 17:30:00,
2013-11-30 12:40:00,44.6,30.8,30.55,East,88,0.0,2.0,58,0.00,,,0.00,VWS V15.00,2013-11-30 17:40:00,
2013-11-30 12:50:00,44.8,30.9,30.54,East,88,0.0,1.0,58,0.00,,,0.00,VWS V15.00,2013-11-30 17:50:00,
2013-11-30 13:00:00,44.6,31.2,30.53,East,84,0.0,3.0,59,0.00,,,0.00,VWS V15.00,2013-11-30 18:00:00,
2013-11-30 13:10:00,44.5,30.7,30.53,WNW,301,0.0,4.0,58,0.00,,,0.00,VWS V15.00,2013-11-30 18:10:00,
2013-11-30 13:20:00,44.8,30.9,30.52,WNW,285,2.0,2.0,58,0.00,,,0.00,VWS V15.00,2013-11-30 18:20:00,
2013-11-30 13:30:00,45.4,30.6,30.51,East,83,0.0,3.0,56,0.00,,,0.00,VWS V15.00,2013-11-30 18:30:00,
2013-11-30 13:40:00,45.8,31.0,30.51,SW,221,1.0,3.0,56,0.00,,,0.00,VWS V15.00,2013-11-30 18:40:00,
2013-11-30 13:50:00,46.2,31.8,30.51,ENE,65,0.0,3.0,57,0.00,,,0.00,VWS V15.00,2013-11-30 18:50:00,
2013-11-30 14:00:00,46.2,31.4,30.50,ENE,65,0.0,1.0,56,0.00,,,0.00,VWS V15.00,2013-11-30 19:00:00,
2013-11-30 14:10:00,46.7,31.0,30.50,SSE,163,0.0,4.0,54,0.00,,,0.00,VWS V15.00,2013-11-30 19:10:00,
2013-11-30 14:20:00,47.1,31.8,30.49,ENE,65,0.0,2.0,55,0.00,,,0.00,VWS V15.00,2013-11-30 19:20:00,
2013-11-30 14:30:00,46.8,31.5,30.48,ENE,67,1.0,2.0,55,0.00,,,0.00,VWS V15.00,2013-11-30 19:30:00,
2013-11-30 14:40:00,46.7,31.0,30.48,ENE,67,0.0,1.0,54,0.00,,,0.00,VWS V15.00,2013-11-30 19:40:00,
2013-11-30 14:50:00,47.1,31.3,30.47,NE,42,0.0,2.0,54,0.00,,,0.00,VWS V15.00,2013-11-30 19:50:00,
2013-11-30 15:00:00,46.8,32.0,30.47,NE,42,0.0,0.0,56,0.00,,,0.00,VWS V15.00,2013-11-30 20:00:00,
2013-11-30 15:10:00,46.5,31.2,30.47,NE,42,0.0,1.0,55,0.00,,,0.00,VWS V15.00,2013-11-30 20:10:00,
2013-11-30 15:20:00,46.2,30.9,30.47,NE,42,1.0,1.0,55,0.00,,,0.00,VWS V15.00,2013-11-30 20:20:00,
2013-11-30 15:30:00,46.5,31.7,30.47,East,93,0.0,1.0,56,0.00,,,0.00,VWS V15.00,2013-11-30 20:30:00,
2013-11-30 15:40:00,46.7,31.4,30.47,East,93,0.0,1.0,55,0.00,,,0.00,VWS V15.00,2013-11-30 20:40:00,
2013-11-30 15:50:00,46.2,30.9,30.47,East,92,0.0,1.0,55,0.00,,,0.00,VWS V15.00,2013-11-30 20:50:00,
2013-11-30 16:00:00,46.0,31.2,30.47,East,92,0.0,1.0,56,0.00,,,0.00,VWS V15.00,2013-11-30 21:00:00,
2013-11-30 16:10:00,45.2,31.3,30.47,East,92,0.0,0.0,58,0.00,,,0.00,VWS V15.00,2013-11-30 21:10:00,
2013-11-30 16:20:00,44.6,31.2,30.47,East,92,0.0,0.0,59,0.00,,,0.00,VWS V15.00,2013-11-30 21:20:00,
2013-11-30 16:30:00,44.1,31.1,30.46,East,92,0.0,0.0,60,0.00,,,0.00,VWS V15.00,2013-11-30 21:30:00,
2013-11-30 16:40:00,43.5,31.0,30.46,East,92,0.0,0.0,61,0.00,,,0.00,VWS V15.00,2013-11-30 21:40:00,
2013-11-30 16:50:00,42.9,30.8,30.45,East,92,0.0,0.0,62,0.00,,,0.00,VWS V15.00,2013-11-30 21:50:00,
2013-11-30 17:00:00,42.5,30.8,30.45,East,92,0.0,0.0,63,0.00,,,0.00,VWS V15.00,2013-11-30 22:00:00,
2013-11-30 17:10:00,42.1,30.8,30.45,East,92,0.0,0.0,64,0.00,,,0.00,VWS V15.00,2013-11-30 22:10:00,
2013-11-30 17:20:00,41.6,30.7,30.44,East,92,0.0,0.0,65,0.00,,,0.00,VWS V15.00,2013-11-30 22:20:00,
2013-11-30 17:30:00,41.2,30.7,30.45,East,92,0.0,0.0,66,0.00,,,0.00,VWS V15.00,2013-11-30 22:30:00,
2013-11-30 17:39:00,40.8,30.7,30.45,East,92,0.0,0.0,67,0.00,,,0.00,VWS V15.00,2013-11-30 22:39:00,
2013-11-30 17:45:00,40.5,30.8,30.45,East,92,0.0,0.0,68,0.00,,,0.00,VWS V15.00,2013-11-30 22:45:00,
2013-11-30 17:51:00,40.2,30.5,30.45,East,92,0.0,0.0,68,0.00,,,0.00,VWS V15.00,2013-11-30 22:51:00,
2013-11-30 18:00:00,39.6,30.6,30.44,East,92,0.0,0.0,70,0.00,,,0.00,VWS V15.00,2013-11-30 23:00:00,
2013-11-30 18:10:00,39.1,30.2,30.44,East,92,0.0,0.0,70,0.00,,,0.00,VWS V15.00,2013-11-30 23:10:00,
2013-11-30 18:20:00,38.6,30.4,30.43,East,92,0.0,0.0,72,0.00,,,0.00,VWS V15.00,2013-11-30 23:20:00,
2013-11-30 18:30:00,38.0,30.1,30.44,East,92,0.0,0.0,73,0.00,,,0.00,VWS V15.00,2013-11-30 23:30:00,
2013-11-30 18:40:00,37.5,30.0,30.44,East,92,0.0,0.0,74,0.00,,,0.00,VWS V15.00,2013-11-30 23:40:00,
2013-11-30 18:50:00,36.6,29.8,30.44,East,92,0.0,0.0,76,0.00,,,0.00,VWS V15.00,2013-11-30 23:50:00,
2013-11-30 19:00:00,36.0,29.8,30.44,East,92,0.0,0.0,78,0.00,,,0.00,VWS V15.00,2013-12-01 00:00:00,
2013-11-30 19:10:00,35.6,29.7,30.44,East,92,0.0,0.0,79,0.00,,,0.00,VWS V15.00,2013-12-01 00:10:00,
2013-11-30 19:20:00,35.2,29.4,30.44,East,92,0.0,0.0,79,0.00,,,0.00,VWS V15.00,2013-12-01 00:20:00,
2013-11-30 19:30:00,34.6,29.4,30.43,East,92,0.0,0.0,81,0.00,,,0.00,VWS V15.00,2013-12-01 00:30:00,
2013-11-30 19:40:00,34.3,29.7,30.43,East,92,0.0,0.0,83,0.00,,,0.00,VWS V15.00,2013-12-01 00:40:00,
2013-11-30 19:50:00,34.0,29.4,30.43,East,92,0.0,0.0,83,0.00,,,0.00,VWS V15.00,2013-12-01 00:50:00,
2013-11-30 20:00:00,33.5,29.2,30.44,East,92,0.0,0.0,84,0.00,,,0.00,VWS V15.00,2013-12-01 01:00:00,
2013-11-30 20:10:00,33.4,29.4,30.44,East,92,0.0,0.0,85,0.00,,,0.00,VWS V15.00,2013-12-01 01:10:00,
2013-11-30 20:20:00,33.4,29.4,30.42,East,92,0.0,0.0,85,0.00,,,0.00,VWS V15.00,2013-12-01 01:20:00,
2013-11-30 20:30:00,33.5,29.5,30.42,East,92,0.0,0.0,85,0.00,,,0.00,VWS V15.00,2013-12-01 01:30:00,
2013-11-30 20:40:00,33.5,29.8,30.42,East,92,0.0,0.0,86,0.00,,,0.00,VWS V15.00,2013-12-01 01:40:00,
2013-11-30 20:50:00,33.5,29.5,30.42,East,92,0.0,0.0,85,0.00,,,0.00,VWS V15.00,2013-12-01 01:50:00,
2013-11-30 21:00:00,33.7,29.7,30.42,East,92,0.0,0.0,85,0.00,,,0.00,VWS V15.00,2013-12-01 02:00:00,
2013-11-30 21:10:00,33.7,29.7,30.42,East,92,0.0,0.0,85,0.00,,,0.00,VWS V15.00,2013-12-01 02:10:00,
2013-11-30 21:20:00,33.7,29.7,30.41,East,92,0.0,0.0,85,0.00,,,0.00,VWS V15.00,2013-12-01 02:20:00,
2013-11-30 21:30:00,33.8,29.8,30.41,East,92,0.0,0.0,85,0.00,,,0.00,VWS V15.00,2013-12-01 02:30:00,
2013-11-30 21:40:00,34.4,30.1,30.41,East,92,0.0,0.0,84,0.00,,,0.00,VWS V15.00,2013-12-01 02:40:00,
2013-11-30 21:50:00,34.6,30.0,30.41,East,92,0.0,0.0,83,0.00,,,0.00,VWS V15.00,2013-12-01 02:50:00,
2013-11-30 22:00:00,34.6,30.0,30.40,East,92,0.0,0.0,83,0.00,,,0.00,VWS V15.00,2013-12-01 03:00:00,
2013-11-30 22:10:00,34.4,29.8,30.40,East,92,0.0,0.0,83,0.00,,,0.00,VWS V15.00,2013-12-01 03:10:00,
2013-11-30 22:20:00,34.6,30.0,30.40,East,92,0.0,0.0,83,0.00,,,0.00,VWS V15.00,2013-12-01 03:20:00,
2013-11-30 22:30:00,34.4,29.8,30.39,East,92,0.0,0.0,83,0.00,,,0.00,VWS V15.00,2013-12-01 03:30:00,
2013-11-30 22:40:00,34.3,29.4,30.39,East,92,0.0,0.0,82,0.00,,,0.00,VWS V15.00,2013-12-01 03:40:00,
2013-11-30 22:50:00,33.8,29.2,30.39,East,92,0.0,0.0,83,0.00,,,0.00,VWS V15.00,2013-12-01 03:50:00,
2013-11-30 23:00:00,33.7,29.4,30.38,East,92,0.0,0.0,84,0.00,,,0.00,VWS V15.00,2013-12-01 04:00:00,
2013-11-30 23:10:00,33.4,29.1,30.38,East,92,0.0,0.0,84,0.00,,,0.00,VWS V15.00,2013-12-01 04:10:00,
2013-11-30 23:20:00,33.2,29.2,30.37,East,92,0.0,0.0,85,0.00,,,0.00,VWS V15.00,2013-12-01 04:20:00,
2013-11-30 23:30:00,33.1,29.1,30.36,East,92,0.0,0.0,85,0.00,,,0.00,VWS V15.00,2013-12-01 04:30:00,
2013-11-30 23:40:00,33.1,29.4,30.36,East,92,0.0,0.0,86,0.00,,,0.00,VWS V15.00,2013-12-01 04:40:00,
2013-11-30 23:50:00,33.2,29.5,30.36,East,92,0.0,0.0,86,0.00,,,0.00,VWS V15.00,2013-12-01 04:50:00,